createdAt,value
2018-08-13T00:00:24.767Z,2.93
2018-08-13T00:03:28.465Z,2.83
2018-08-13T00:06:32.095Z,4.00
2018-08-13T00:09:42.001Z,3.50
2018-08-13T00:12:45.708Z,3.00
2018-08-13T00:15:49.541Z,3.00
2018-08-13T00:18:53.244Z,4.23
2018-08-13T00:21:56.883Z,2.87
2018-08-13T00:25:00.468Z,2.97
2018-08-13T00:28:04.852Z,2.80
2018-08-13T00:31:08.461Z,4.03
2018-08-13T00:34:12.127Z,4.20
2018-08-13T00:37:15.677Z,2.70
2018-08-13T00:40:19.457Z,2.73
2018-08-13T00:43:23.144Z,3.13
2018-08-13T00:46:26.888Z,2.90
2018-08-13T00:49:30.727Z,3.10
2018-08-13T00:52:34.393Z,3.00
2018-08-13T00:55:38.131Z,4.43
2018-08-13T00:58:41.877Z,3.10
2018-08-13T01:01:45.591Z,4.30
2018-08-13T01:04:49.237Z,2.53
2018-08-13T01:07:52.968Z,2.70
2018-08-13T01:10:56.719Z,3.50
2018-08-13T01:14:00.352Z,2.83
2018-08-13T01:17:04.165Z,3.07
2018-08-13T01:20:09.958Z,3.40
2018-08-13T01:23:14.102Z,3.20
2018-08-13T01:26:17.717Z,3.63
2018-08-13T01:29:21.511Z,5.60
2018-08-13T01:32:25.126Z,3.17
2018-08-13T01:35:28.832Z,2.83
2018-08-13T01:38:32.599Z,2.87
2018-08-13T01:41:36.417Z,2.90
2018-08-13T01:44:40.066Z,3.00
2018-08-13T01:47:43.661Z,5.30
2018-08-13T01:50:47.389Z,3.10
2018-08-13T01:53:51.048Z,4.20
2018-08-13T01:56:54.671Z,3.20
2018-08-13T01:59:58.417Z,3.80
2018-08-13T02:03:02.122Z,3.00
2018-08-13T02:06:05.789Z,3.00
2018-08-13T02:09:11.364Z,4.40
2018-08-13T02:12:15.063Z,3.27
2018-08-13T02:15:18.784Z,3.80
2018-08-13T02:18:22.412Z,4.90
2018-08-13T02:21:26.181Z,3.00
2018-08-13T02:24:30.057Z,3.90
2018-08-13T02:27:33.799Z,3.23
2018-08-13T02:30:37.589Z,3.03
2018-08-13T02:33:41.286Z,3.33
2018-08-13T02:36:44.900Z,3.20
2018-08-13T02:39:48.509Z,3.17
2018-08-13T02:42:52.172Z,3.07
2018-08-13T02:45:55.813Z,4.30
2018-08-13T02:48:59.507Z,3.30
2018-08-13T02:52:03.279Z,3.80
2018-08-13T02:55:07.504Z,5.67
2018-08-13T02:58:11.195Z,3.20
2018-08-13T03:01:14.730Z,3.53
2018-08-13T03:04:18.350Z,3.77
2018-08-13T03:07:21.959Z,2.80
2018-08-13T03:10:25.627Z,3.20
2018-08-13T03:13:29.381Z,6.00
2018-08-13T03:16:33.034Z,3.10
2018-08-13T03:19:36.680Z,4.83
2018-08-13T03:22:40.488Z,3.07
2018-08-13T03:25:44.319Z,3.43
2018-08-13T03:28:48.069Z,4.33
2018-08-13T03:31:51.703Z,3.20
2018-08-13T03:34:55.453Z,3.63
2018-08-13T03:37:59.092Z,2.60
2018-08-13T03:41:02.954Z,4.10
2018-08-13T03:44:07.026Z,3.30
2018-08-13T03:47:10.711Z,3.40
2018-08-13T03:50:14.384Z,4.10
2018-08-13T03:53:18.050Z,2.90
2018-08-13T03:56:21.687Z,3.03
2018-08-13T03:59:25.428Z,3.07
2018-08-13T04:02:29.213Z,2.90
2018-08-13T04:05:32.908Z,3.30
2018-08-13T04:08:36.730Z,3.07
2018-08-13T04:11:40.344Z,2.80
2018-08-13T04:14:43.918Z,3.07
2018-08-13T04:17:47.698Z,3.27
2018-08-13T04:20:51.298Z,3.43
2018-08-13T04:23:55.178Z,4.63
2018-08-13T04:26:59.440Z,3.20
2018-08-13T04:30:04.025Z,3.10
2018-08-13T04:33:07.663Z,3.40
2018-08-13T04:36:11.435Z,5.20
2018-08-13T04:39:16.205Z,4.60
2018-08-13T04:42:19.880Z,4.20
2018-08-13T04:45:23.628Z,4.37
2018-08-13T04:48:27.282Z,3.30
2018-08-13T04:51:30.946Z,2.90
2018-08-13T04:54:34.640Z,3.30
2018-08-13T04:57:38.401Z,3.10
2018-08-13T05:00:42.107Z,3.50
2018-08-13T05:03:45.734Z,4.37
2018-08-13T05:06:49.335Z,3.93
2018-08-13T05:09:52.964Z,4.63
2018-08-13T05:12:56.636Z,3.53
2018-08-13T05:16:00.256Z,5.10
2018-08-13T05:19:04.206Z,3.20
2018-08-13T05:22:07.889Z,3.23
2018-08-13T05:25:11.795Z,3.20
2018-08-13T05:28:15.395Z,5.60
2018-08-13T05:31:19.121Z,3.40
2018-08-13T05:34:22.870Z,3.20
2018-08-13T05:37:26.446Z,5.23
2018-08-13T05:40:30.124Z,3.43
2018-08-13T05:43:33.781Z,3.43
2018-08-13T05:46:37.434Z,3.10
2018-08-13T05:49:41.081Z,3.20
2018-08-13T05:52:44.894Z,3.30
2018-08-13T05:55:48.611Z,4.50
2018-08-13T05:58:52.305Z,3.60
2018-08-13T06:01:55.964Z,2.97
2018-08-13T06:04:59.654Z,3.23
2018-08-13T06:08:03.304Z,3.57
2018-08-13T06:11:07.154Z,4.20
2018-08-13T06:14:10.978Z,4.00
2018-08-13T06:17:14.927Z,2.83
2018-08-13T06:20:18.595Z,3.73
2018-08-13T06:23:22.834Z,3.30
2018-08-13T06:26:26.611Z,3.90
2018-08-13T06:29:30.305Z,3.73
2018-08-13T06:32:34.035Z,3.53
2018-08-13T06:35:37.970Z,3.60
2018-08-13T06:38:41.694Z,3.37
2018-08-13T06:41:45.344Z,3.47
2018-08-13T06:44:48.975Z,3.60
2018-08-13T06:47:52.754Z,3.50
2018-08-13T06:50:56.527Z,3.90
2018-08-13T06:54:00.177Z,3.10
2018-08-13T06:57:04.198Z,3.23
2018-08-13T07:00:10.406Z,4.07
2018-08-13T07:03:14.041Z,5.47
2018-08-13T07:06:17.677Z,3.30
2018-08-13T07:09:21.336Z,4.47
2018-08-13T07:12:25.105Z,4.57
2018-08-13T07:15:28.833Z,12.10
2018-08-13T07:18:32.683Z,4.00
2018-08-13T07:21:36.358Z,3.43
2018-08-13T07:24:40.201Z,6.53
2018-08-13T07:27:43.909Z,3.70
2018-08-13T07:30:47.599Z,5.03
2018-08-13T07:33:51.291Z,3.70
2018-08-13T07:36:55.116Z,5.43
2018-08-13T07:39:58.956Z,4.17
2018-08-13T07:43:02.906Z,5.53
2018-08-13T07:46:06.659Z,4.40
2018-08-13T07:49:10.602Z,5.80
2018-08-13T07:52:14.335Z,6.27
2018-08-13T07:55:18.852Z,3.70
2018-08-13T07:58:22.575Z,4.30
2018-08-13T08:01:26.208Z,3.80
2018-08-13T08:04:29.895Z,3.80
2018-08-13T08:07:33.553Z,12.83
2018-08-13T08:10:37.248Z,5.33
2018-08-13T08:13:41.011Z,7.83
2018-08-13T08:16:44.755Z,5.20
2018-08-13T08:19:48.461Z,6.90
2018-08-13T08:22:52.371Z,4.80
2018-08-13T08:25:56.219Z,4.43
2018-08-13T08:28:59.987Z,7.43
2018-08-13T08:32:03.792Z,6.67
2018-08-13T08:35:09.472Z,5.87
2018-08-13T08:38:13.429Z,6.20
2018-08-13T08:41:17.152Z,3.80
2018-08-13T08:44:21.067Z,7.33
2018-08-13T08:47:24.882Z,5.53
2018-08-13T08:50:28.680Z,7.23
2018-08-13T08:53:32.526Z,6.23
2018-08-13T08:56:36.221Z,4.87
2018-08-13T08:59:39.953Z,4.17
2018-08-13T09:02:43.604Z,11.60
2018-08-13T09:05:47.321Z,4.63
2018-08-13T09:08:51.113Z,6.70
2018-08-13T09:11:54.872Z,5.97
2018-08-13T09:14:58.838Z,7.10
2018-08-13T09:18:13.515Z,4.43
2018-08-13T09:21:29.625Z,4.53
2018-08-13T09:24:44.493Z,5.30
2018-08-13T09:27:59.188Z,4.63
2018-08-13T09:31:14.229Z,6.43
2018-08-13T09:34:33.838Z,5.30
2018-08-13T09:37:37.574Z,4.10
2018-08-13T09:40:41.235Z,5.23
2018-08-13T09:43:44.927Z,6.60
2018-08-13T09:46:48.588Z,6.57
2018-08-13T09:49:52.189Z,4.57
2018-08-13T09:52:55.999Z,4.40
2018-08-13T09:55:59.643Z,4.20
2018-08-13T09:59:03.278Z,7.27
2018-08-13T10:02:07.045Z,6.87
2018-08-13T10:05:10.917Z,5.53
2018-08-13T10:08:14.624Z,9.23
2018-08-13T10:11:18.390Z,5.83
2018-08-13T10:14:22.094Z,6.10
2018-08-13T10:17:26.031Z,4.37
2018-08-13T10:20:29.844Z,5.70
2018-08-13T10:23:33.620Z,4.67
2018-08-13T10:26:37.397Z,5.80
2018-08-13T10:29:41.114Z,8.80
2018-08-13T10:32:44.958Z,5.07
2018-08-13T10:35:48.690Z,6.13
2018-08-13T10:38:53.649Z,6.27
2018-08-13T10:41:57.343Z,7.63
2018-08-13T10:45:01.072Z,3.97
2018-08-13T10:48:04.914Z,3.90
2018-08-13T10:51:08.589Z,3.97
2018-08-13T10:54:12.244Z,3.60
2018-08-13T10:57:16.207Z,5.03
2018-08-13T11:00:19.836Z,5.00
2018-08-13T11:03:23.546Z,5.50
2018-08-13T11:06:27.465Z,3.47
2018-08-13T11:09:31.106Z,4.03
2018-08-13T11:12:34.993Z,3.20
2018-08-13T11:15:38.844Z,4.10
2018-08-13T11:18:42.633Z,4.07
2018-08-13T11:21:46.456Z,6.53
2018-08-13T11:24:50.263Z,3.70
2018-08-13T11:27:53.981Z,11.03
2018-08-13T11:30:57.631Z,3.53
2018-08-13T11:34:01.384Z,4.13
2018-08-13T11:37:05.164Z,3.60
2018-08-13T11:40:13.055Z,3.60
2018-08-13T11:43:16.763Z,3.93
2018-08-13T11:46:20.458Z,4.17
2018-08-13T11:49:24.137Z,5.10
2018-08-13T11:52:27.908Z,4.70
2018-08-13T11:55:31.560Z,3.40
2018-08-13T11:58:35.883Z,3.10
2018-08-13T12:01:39.637Z,4.47
2018-08-13T12:04:43.276Z,3.83
2018-08-13T12:07:47.151Z,3.50
2018-08-13T12:10:50.775Z,5.20
2018-08-13T12:13:54.430Z,3.07
2018-08-13T12:16:58.261Z,3.47
2018-08-13T12:20:02.293Z,3.40
2018-08-13T12:23:06.100Z,4.40
2018-08-13T12:26:09.973Z,3.73
2018-08-13T12:29:13.716Z,5.43
2018-08-13T12:32:17.416Z,2.87
2018-08-13T12:35:21.415Z,4.47
2018-08-13T12:38:25.232Z,3.80
2018-08-13T12:41:28.945Z,3.90
2018-08-13T12:44:32.763Z,3.43
2018-08-13T12:47:36.705Z,3.07
2018-08-13T12:50:40.531Z,3.00
2018-08-13T12:53:44.335Z,3.63
2018-08-13T12:56:48.228Z,3.10
2018-08-13T12:59:52.024Z,3.40
2018-08-13T13:02:55.750Z,3.27
2018-08-13T13:05:59.516Z,4.23
2018-08-13T13:09:03.842Z,3.07
2018-08-13T13:12:07.502Z,3.10
2018-08-13T13:15:12.888Z,3.00
2018-08-13T13:18:16.675Z,3.30
2018-08-13T13:21:20.498Z,3.37
2018-08-13T13:24:24.388Z,5.70
2018-08-13T13:27:28.240Z,2.80
2018-08-13T13:30:32.067Z,3.10
2018-08-13T13:33:35.746Z,3.57
2018-08-13T13:36:39.573Z,3.20
2018-08-13T13:39:43.282Z,4.03
2018-08-13T13:42:47.040Z,3.23
2018-08-13T13:45:50.805Z,4.90
2018-08-13T13:48:54.841Z,3.90
2018-08-13T13:51:58.559Z,4.63
2018-08-13T13:55:02.322Z,4.53
2018-08-13T13:58:06.731Z,3.60
2018-08-13T14:01:10.456Z,3.13
2018-08-13T14:04:14.279Z,4.00
2018-08-13T14:07:17.886Z,3.50
2018-08-13T14:10:22.661Z,5.07
2018-08-13T14:13:26.290Z,3.70
2018-08-13T14:16:30.047Z,3.30
2018-08-13T14:19:33.911Z,4.43
2018-08-13T14:22:37.805Z,3.90
2018-08-13T14:25:41.609Z,3.20
2018-08-13T14:28:45.501Z,6.57
2018-08-13T14:31:49.371Z,3.40
2018-08-13T14:34:53.509Z,3.00
2018-08-13T14:37:57.131Z,3.10
2018-08-13T14:41:00.924Z,3.13
2018-08-13T14:44:04.957Z,5.70
2018-08-13T14:47:08.696Z,2.90
2018-08-13T14:50:13.002Z,3.07
2018-08-13T14:53:16.770Z,2.80
2018-08-13T14:56:20.570Z,3.30
2018-08-13T14:59:24.317Z,4.73
2018-08-13T15:02:28.097Z,3.10
2018-08-13T15:05:31.849Z,2.80
2018-08-13T15:08:35.670Z,3.43
2018-08-13T15:11:41.255Z,3.33
2018-08-13T15:14:44.965Z,3.97
2018-08-13T15:17:49.094Z,4.20
2018-08-13T15:20:52.822Z,5.17
2018-08-13T15:23:56.676Z,3.60
2018-08-13T15:27:00.529Z,3.63
2018-08-13T15:30:05.523Z,4.53
2018-08-13T15:33:09.320Z,4.20
2018-08-13T15:36:13.008Z,6.13
2018-08-13T15:39:16.642Z,3.70
2018-08-13T15:42:20.448Z,5.57
2018-08-13T15:45:24.728Z,7.33
2018-08-13T15:48:29.581Z,3.83
2018-08-13T15:51:33.318Z,3.33
2018-08-13T15:57:52.368Z,3.50
2018-08-13T16:00:55.996Z,3.73
2018-08-13T16:03:59.782Z,3.60
2018-08-13T16:07:06.705Z,3.60
2018-08-13T16:10:12.296Z,3.83
2018-08-13T16:13:16.108Z,5.87
2018-08-13T16:16:19.820Z,5.93
2018-08-13T16:19:23.536Z,4.50
2018-08-13T16:22:27.228Z,4.13
2018-08-13T16:25:31.132Z,4.03
2018-08-13T16:28:34.921Z,5.10
2018-08-13T16:31:38.766Z,4.63
2018-08-13T16:34:42.467Z,4.60
2018-08-13T16:37:46.595Z,4.87
2018-08-13T16:40:50.331Z,5.90
2018-08-13T16:43:54.169Z,5.63
2018-08-13T16:46:57.864Z,5.47
2018-08-13T16:50:01.549Z,5.60
2018-08-13T16:53:05.321Z,5.27
2018-08-13T16:56:09.039Z,4.47
2018-08-13T16:59:13.026Z,5.97
2018-08-13T17:02:16.856Z,8.03
2018-08-13T17:05:20.751Z,4.77
2018-08-13T17:08:24.454Z,4.37
2018-08-13T17:11:32.308Z,6.83
2018-08-13T17:14:36.308Z,4.80
2018-08-13T17:17:40.084Z,4.90
2018-08-13T17:20:43.970Z,9.20
2018-08-13T17:23:47.880Z,5.13
2018-08-13T17:26:51.653Z,5.00
2018-08-13T17:29:55.414Z,9.80
2018-08-13T17:33:00.332Z,5.33
2018-08-13T17:36:04.157Z,4.47
2018-08-13T17:39:10.956Z,5.00
2018-08-13T17:42:14.817Z,6.53
2018-08-13T17:45:18.777Z,4.97
2018-08-13T17:48:22.509Z,5.03
2018-08-13T17:51:26.332Z,5.00
2018-08-13T17:54:30.107Z,8.33
2018-08-13T17:57:33.893Z,4.90
2018-08-13T18:00:37.679Z,4.20
2018-08-13T18:03:41.384Z,4.40
2018-08-13T18:06:45.305Z,4.10
2018-08-13T18:09:49.019Z,4.33
2018-08-13T18:12:52.910Z,5.27
2018-08-13T18:15:56.715Z,7.43
2018-08-13T18:19:00.404Z,5.77
2018-08-13T18:22:04.164Z,5.97
2018-08-13T18:25:09.993Z,5.37
2018-08-13T18:28:13.764Z,5.90
2018-08-13T18:31:17.445Z,7.03
2018-08-13T18:34:21.216Z,6.43
2018-08-13T18:37:25.016Z,5.60
2018-08-13T18:40:34.280Z,4.63
2018-08-13T18:43:38.038Z,4.97
2018-08-13T18:46:41.755Z,5.17
2018-08-13T18:49:45.486Z,5.20
2018-08-13T18:52:49.295Z,7.83
2018-08-13T18:55:52.962Z,5.60
2018-08-13T18:58:56.752Z,5.80
2018-08-13T19:02:00.493Z,9.80
2018-08-13T19:05:04.492Z,6.03
2018-08-13T19:08:08.235Z,5.70
2018-08-13T19:11:12.008Z,6.20
2018-08-13T19:14:15.728Z,6.70
2018-08-13T19:17:19.538Z,7.67
2018-08-13T19:20:23.542Z,6.70
2018-08-13T19:23:27.612Z,7.47
2018-08-13T19:26:31.423Z,7.10
2018-08-13T19:29:35.143Z,8.57
2018-08-13T19:32:39.064Z,7.10
2018-08-13T19:35:42.828Z,6.57
2018-08-13T19:38:46.535Z,6.90
2018-08-13T19:41:50.314Z,6.60
2018-08-13T19:44:54.144Z,6.83
2018-08-13T19:47:57.980Z,7.20
2018-08-13T19:51:02.016Z,6.70
2018-08-13T19:54:05.966Z,6.37
2018-08-13T19:57:09.678Z,5.80
2018-08-13T20:00:21.615Z,6.60
2018-08-13T20:03:25.309Z,6.23
2018-08-13T20:06:29.019Z,7.37
2018-08-13T20:09:32.780Z,6.60
2018-08-13T20:12:36.664Z,7.43
2018-08-13T20:15:40.587Z,7.07
2018-08-13T20:18:44.426Z,6.10
2018-08-13T20:21:48.364Z,7.80
2018-08-13T20:24:52.210Z,8.10
2018-08-13T20:27:56.030Z,8.93
2018-08-13T20:30:59.763Z,10.40
2018-08-13T20:34:03.609Z,9.03
2018-08-13T20:37:07.495Z,11.80
2018-08-13T20:40:13.259Z,11.03
2018-08-13T20:43:17.020Z,9.80
2018-08-13T20:46:21.839Z,11.33
2018-08-13T20:49:25.948Z,12.10
2018-08-13T20:52:29.704Z,11.77
2018-08-13T20:55:34.101Z,11.87
2018-08-13T20:58:37.865Z,10.93
2018-08-13T21:01:42.327Z,10.33
2018-08-13T21:04:46.035Z,14.70
2018-08-13T21:07:50.359Z,12.20
2018-08-13T21:10:54.139Z,12.57
2018-08-13T21:13:58.076Z,19.30
2018-08-13T21:17:01.913Z,16.10
2018-08-13T21:20:06.370Z,15.20
2018-08-13T21:23:10.275Z,15.87
2018-08-13T21:26:14.014Z,12.83
2018-08-13T21:29:17.795Z,11.53
2018-08-13T21:32:21.546Z,15.47
2018-08-13T21:35:26.164Z,14.23
2018-08-13T21:38:29.950Z,13.80
2018-08-13T21:41:33.599Z,12.03
2018-08-13T21:44:37.386Z,14.00
2018-08-13T21:47:41.530Z,18.03
2018-08-13T21:50:45.217Z,18.63
2018-08-13T21:53:49.066Z,15.70
2018-08-13T21:56:52.817Z,15.03
2018-08-13T21:59:56.632Z,15.80
2018-08-13T22:03:01.962Z,16.53
2018-08-13T22:06:05.685Z,18.93
2018-08-13T22:09:10.154Z,20.60
2018-08-13T22:12:19.099Z,19.13
2018-08-13T22:15:29.106Z,23.80
2018-08-13T22:18:32.861Z,23.40
2018-08-13T22:21:37.016Z,24.67
2018-08-13T22:24:51.766Z,25.07
2018-08-13T22:27:55.545Z,24.13
2018-08-13T22:30:59.271Z,26.33
2018-08-13T22:34:02.961Z,27.83
2018-08-13T22:37:06.748Z,25.70
2018-08-13T22:40:13.845Z,26.63
2018-08-13T22:43:17.491Z,26.00
2018-08-13T22:46:21.230Z,27.60
2018-08-13T22:49:24.916Z,29.10
2018-08-13T22:52:28.782Z,30.17
2018-08-13T22:55:32.646Z,28.90
2018-08-13T22:58:36.379Z,29.60
2018-08-13T23:01:40.066Z,27.70
2018-08-13T23:04:43.791Z,30.87
2018-08-13T23:07:47.520Z,29.30
2018-08-13T23:10:51.321Z,31.77
2018-08-13T23:13:55.192Z,29.43
2018-08-13T23:16:59.100Z,31.33
2018-08-13T23:20:02.874Z,34.00
2018-08-13T23:23:06.739Z,35.80
2018-08-13T23:26:10.545Z,30.53
2018-08-13T23:29:14.201Z,29.07
2018-08-13T23:32:17.944Z,31.47
2018-08-13T23:35:22.454Z,37.00
2018-08-13T23:38:26.133Z,32.20
2018-08-13T23:41:29.837Z,28.77
2018-08-13T23:44:33.541Z,28.93
2018-08-13T23:47:37.546Z,29.90
2018-08-13T23:50:41.364Z,28.63
2018-08-13T23:53:45.050Z,31.30
2018-08-13T23:56:48.711Z,28.40
2018-08-13T23:59:52.435Z,31.30
